KSTP

St Paul Downtown Holman Field Airport

St Paul, Minnesota, USA
METAR KSTP 181453Z 15005KT 10SM CLR M07/M09 A2989 RMK AO2 SLP132 T10671089 58006
Observed Flight Rules
Jan-18 @ 14:53 UTC (25 minutes ago) Visual Flight Rules
Wind Visibility Clouds
150° at 5 knots 10 miles
  • Clear skies
Temperatures Readings
Current -7°C / 19°F
Dewpoint -9°C / 16°F
Humidity 86%
Altimeter 29.89" Hg
Pressure 1013.2 hPa
Elevation 219
METAR KSTP 181453Z 15005KT 10SM CLR M07/M09 A2989 RMK AO2 SLP132 T10671089 58006
Observed Flight Rules
Jan-18 @ 14:53 UTC
(25 minutes ago)
VFR
Wind Visibility
150° at 5 knots 10 miles
Clouds
  • Clear skies
Temperature Dewpoint
-7°C / 19°F -9°C / 16°F
Humidity Altimeter Pressure
86% 29.89" Hg 1013.2 hPa